sensor_id;sensor_type;location;lat;lon;timestamp;P1;durP1;ratioP1;P2;durP2;ratioP2
53022;SDS011;38913;44.338;11.206;2023-04-24T00:01:39;5.25;;;3.15;;
53022;SDS011;38913;44.338;11.206;2023-04-24T00:04:04;3.75;;;3.10;;
53022;SDS011;38913;44.338;11.206;2023-04-24T00:06:30;4.00;;;2.90;;
53022;SDS011;38913;44.338;11.206;2023-04-24T00:08:59;5.35;;;3.38;;
53022;SDS011;38913;44.338;11.206;2023-04-24T00:11:25;5.05;;;2.67;;
53022;SDS011;38913;44.338;11.206;2023-04-24T00:13:50;6.47;;;3.10;;
53022;SDS011;38913;44.338;11.206;2023-04-24T00:16:15;3.90;;;2.57;;
53022;SDS011;38913;44.338;11.206;2023-04-24T00:18:41;5.43;;;2.53;;
53022;SDS011;38913;44.338;11.206;2023-04-24T00:21:06;4.47;;;2.70;;
53022;SDS011;38913;44.338;11.206;2023-04-24T00:23:32;2.28;;;1.65;;
53022;SDS011;38913;44.338;11.206;2023-04-24T00:25:57;6.47;;;2.63;;
53022;SDS011;38913;44.338;11.206;2023-04-24T00:28:22;5.10;;;2.30;;
53022;SDS011;38913;44.338;11.206;2023-04-24T00:30:48;7.50;;;2.42;;
53022;SDS011;38913;44.338;11.206;2023-04-24T00:33:13;3.77;;;2.50;;
53022;SDS011;38913;44.338;11.206;2023-04-24T00:35:38;3.77;;;2.50;;
53022;SDS011;38913;44.338;11.206;2023-04-24T00:38:04;5.50;;;2.38;;
53022;SDS011;38913;44.338;11.206;2023-04-24T00:40:29;6.03;;;2.80;;
53022;SDS011;38913;44.338;11.206;2023-04-24T00:42:55;3.58;;;2.17;;
53022;SDS011;38913;44.338;11.206;2023-04-24T00:45:20;4.68;;;2.55;;
53022;SDS011;38913;44.338;11.206;2023-04-24T00:47:46;4.03;;;2.47;;
53022;SDS011;38913;44.338;11.206;2023-04-24T00:50:11;3.42;;;2.78;;
53022;SDS011;38913;44.338;11.206;2023-04-24T00:52:38;4.68;;;2.65;;
53022;SDS011;38913;44.338;11.206;2023-04-24T00:55:05;4.95;;;3.42;;
53022;SDS011;38913;44.338;11.206;2023-04-24T00:57:31;7.35;;;2.67;;
53022;SDS011;38913;44.338;11.206;2023-04-24T00:59:56;4.45;;;2.67;;
53022;SDS011;38913;44.338;11.206;2023-04-24T01:02:22;3.72;;;2.70;;
53022;SDS011;38913;44.338;11.206;2023-04-24T01:04:50;4.45;;;2.72;;
53022;SDS011;38913;44.338;11.206;2023-04-24T01:07:16;4.97;;;2.85;;
53022;SDS011;38913;44.338;11.206;2023-04-24T01:09:42;3.67;;;2.15;;
53022;SDS011;38913;44.338;11.206;2023-04-24T01:12:08;5.05;;;2.60;;
53022;SDS011;38913;44.338;11.206;2023-04-24T01:14:34;4.85;;;3.03;;
53022;SDS011;38913;44.338;11.206;2023-04-24T01:16:59;5.78;;;2.83;;
53022;SDS011;38913;44.338;11.206;2023-04-24T01:19:25;8.32;;;3.42;;
53022;SDS011;38913;44.338;11.206;2023-04-24T01:21:51;2.83;;;2.03;;
53022;SDS011;38913;44.338;11.206;2023-04-24T01:24:19;6.00;;;2.63;;
53022;SDS011;38913;44.338;11.206;2023-04-24T01:26:44;3.13;;;2.08;;
53022;SDS011;38913;44.338;11.206;2023-04-24T01:29:10;7.30;;;3.42;;
53022;SDS011;38913;44.338;11.206;2023-04-24T01:31:36;5.80;;;2.53;;
53022;SDS011;38913;44.338;11.206;2023-04-24T01:34:02;5.07;;;2.80;;
53022;SDS011;38913;44.338;11.206;2023-04-24T01:36:27;6.50;;;2.90;;
53022;SDS011;38913;44.338;11.206;2023-04-24T01:38:53;3.50;;;2.70;;
53022;SDS011;38913;44.338;11.206;2023-04-24T01:41:18;5.57;;;2.80;;
53022;SDS011;38913;44.338;11.206;2023-04-24T01:43:45;4.43;;;2.47;;
53022;SDS011;38913;44.338;11.206;2023-04-24T01:46:10;7.32;;;3.47;;
53022;SDS011;38913;44.338;11.206;2023-04-24T01:48:35;3.63;;;3.13;;
53022;SDS011;38913;44.338;11.206;2023-04-24T01:51:01;3.83;;;2.30;;
53022;SDS011;38913;44.338;11.206;2023-04-24T01:53:26;4.75;;;3.17;;
53022;SDS011;38913;44.338;11.206;2023-04-24T01:55:52;6.00;;;3.13;;
53022;SDS011;38913;44.338;11.206;2023-04-24T01:58:17;6.57;;;2.72;;
53022;SDS011;38913;44.338;11.206;2023-04-24T02:00:42;4.82;;;3.25;;
53022;SDS011;38913;44.338;11.206;2023-04-24T02:03:07;6.90;;;3.17;;
53022;SDS011;38913;44.338;11.206;2023-04-24T02:05:33;5.25;;;3.50;;
53022;SDS011;38913;44.338;11.206;2023-04-24T02:07:58;4.47;;;2.73;;
53022;SDS011;38913;44.338;11.206;2023-04-24T02:10:23;8.23;;;3.33;;
53022;SDS011;38913;44.338;11.206;2023-04-24T02:12:50;4.65;;;3.05;;
53022;SDS011;38913;44.338;11.206;2023-04-24T02:15:15;5.63;;;3.47;;
53022;SDS011;38913;44.338;11.206;2023-04-24T02:17:41;4.40;;;3.45;;
53022;SDS011;38913;44.338;11.206;2023-04-24T02:20:06;5.33;;;2.77;;
53022;SDS011;38913;44.338;11.206;2023-04-24T02:22:31;5.18;;;2.95;;
53022;SDS011;38913;44.338;11.206;2023-04-24T02:24:57;5.27;;;2.50;;
53022;SDS011;38913;44.338;11.206;2023-04-24T02:27:22;6.80;;;3.00;;
53022;SDS011;38913;44.338;11.206;2023-04-24T02:29:47;4.93;;;3.00;;
53022;SDS011;38913;44.338;11.206;2023-04-24T02:32:12;6.33;;;2.93;;
53022;SDS011;38913;44.338;11.206;2023-04-24T02:34:40;4.90;;;2.72;;
53022;SDS011;38913;44.338;11.206;2023-04-24T02:37:05;8.63;;;2.90;;
53022;SDS011;38913;44.338;11.206;2023-04-24T02:39:30;2.73;;;1.83;;
53022;SDS011;38913;44.338;11.206;2023-04-24T02:41:56;7.30;;;2.40;;
53022;SDS011;38913;44.338;11.206;2023-04-24T02:44:21;6.00;;;2.80;;
53022;SDS011;38913;44.338;11.206;2023-04-24T02:46:47;5.57;;;2.65;;
53022;SDS011;38913;44.338;11.206;2023-04-24T02:49:13;6.30;;;2.50;;
53022;SDS011;38913;44.338;11.206;2023-04-24T02:51:39;5.07;;;2.47;;
53022;SDS011;38913;44.338;11.206;2023-04-24T02:54:06;6.18;;;2.40;;
53022;SDS011;38913;44.338;11.206;2023-04-24T02:56:31;4.60;;;2.45;;
53022;SDS011;38913;44.338;11.206;2023-04-24T02:58:57;6.07;;;2.77;;
53022;SDS011;38913;44.338;11.206;2023-04-24T03:01:22;5.87;;;2.70;;
53022;SDS011;38913;44.338;11.206;2023-04-24T03:03:47;5.40;;;2.20;;
53022;SDS011;38913;44.338;11.206;2023-04-24T03:06:12;11.00;;;3.00;;
53022;SDS011;38913;44.338;11.206;2023-04-24T03:08:37;6.40;;;2.70;;
53022;SDS011;38913;44.338;11.206;2023-04-24T03:11:03;6.25;;;2.40;;
53022;SDS011;38913;44.338;11.206;2023-04-24T03:13:28;6.90;;;2.77;;
53022;SDS011;38913;44.338;11.206;2023-04-24T03:15:53;9.33;;;4.00;;
53022;SDS011;38913;44.338;11.206;2023-04-24T03:18:19;7.20;;;3.10;;
53022;SDS011;38913;44.338;11.206;2023-04-24T03:20:47;5.30;;;4.00;;
53022;SDS011;38913;44.338;11.206;2023-04-24T03:23:12;4.85;;;2.92;;
53022;SDS011;38913;44.338;11.206;2023-04-24T03:25:37;5.10;;;2.70;;
53022;SDS011;38913;44.338;11.206;2023-04-24T03:28:03;5.30;;;3.50;;
53022;SDS011;38913;44.338;11.206;2023-04-24T03:30:28;5.73;;;2.40;;
53022;SDS011;38913;44.338;11.206;2023-04-24T03:32:53;5.88;;;2.63;;
53022;SDS011;38913;44.338;11.206;2023-04-24T03:35:18;4.60;;;2.45;;
53022;SDS011;38913;44.338;11.206;2023-04-24T03:37:44;6.03;;;2.78;;
53022;SDS011;38913;44.338;11.206;2023-04-24T03:40:09;3.70;;;2.27;;
53022;SDS011;38913;44.338;11.206;2023-04-24T03:42:34;4.90;;;2.40;;
53022;SDS011;38913;44.338;11.206;2023-04-24T03:45:00;6.80;;;2.40;;
53022;SDS011;38913;44.338;11.206;2023-04-24T03:47:25;4.63;;;2.50;;
53022;SDS011;38913;44.338;11.206;2023-04-24T03:49:50;4.50;;;2.23;;
53022;SDS011;38913;44.338;11.206;2023-04-24T03:52:16;6.60;;;2.80;;
53022;SDS011;38913;44.338;11.206;2023-04-24T03:54:41;5.87;;;2.57;;
53022;SDS011;38913;44.338;11.206;2023-04-24T03:57:06;8.23;;;2.83;;
53022;SDS011;38913;44.338;11.206;2023-04-24T03:59:31;5.05;;;2.42;;
53022;SDS011;38913;44.338;11.206;2023-04-24T04:04:25;8.43;;;3.00;;
53022;SDS011;38913;44.338;11.206;2023-04-24T04:06:51;6.70;;;2.67;;
53022;SDS011;38913;44.338;11.206;2023-04-24T04:09:17;7.68;;;3.17;;
53022;SDS011;38913;44.338;11.206;2023-04-24T04:11:42;6.53;;;2.70;;
53022;SDS011;38913;44.338;11.206;2023-04-24T04:14:07;6.53;;;2.47;;
53022;SDS011;38913;44.338;11.206;2023-04-24T04:16:32;3.88;;;2.50;;
53022;SDS011;38913;44.338;11.206;2023-04-24T04:18:58;6.17;;;2.80;;
53022;SDS011;38913;44.338;11.206;2023-04-24T04:21:23;6.45;;;3.17;;
53022;SDS011;38913;44.338;11.206;2023-04-24T04:23:49;6.15;;;2.38;;
53022;SDS011;38913;44.338;11.206;2023-04-24T04:26:14;3.75;;;2.22;;
53022;SDS011;38913;44.338;11.206;2023-04-24T04:28:39;4.33;;;2.40;;
53022;SDS011;38913;44.338;11.206;2023-04-24T04:31:05;5.70;;;3.55;;
53022;SDS011;38913;44.338;11.206;2023-04-24T04:33:32;6.03;;;2.30;;
53022;SDS011;38913;44.338;11.206;2023-04-24T04:35:58;4.57;;;1.80;;
53022;SDS011;38913;44.338;11.206;2023-04-24T04:38:23;4.95;;;2.95;;
53022;SDS011;38913;44.338;11.206;2023-04-24T04:40:48;6.78;;;2.33;;
53022;SDS011;38913;44.338;11.206;2023-04-24T04:43:14;4.68;;;2.58;;
53022;SDS011;38913;44.338;11.206;2023-04-24T04:45:41;5.82;;;3.03;;
53022;SDS011;38913;44.338;11.206;2023-04-24T04:48:08;5.95;;;2.53;;
53022;SDS011;38913;44.338;11.206;2023-04-24T04:50:34;4.90;;;2.05;;
53022;SDS011;38913;44.338;11.206;2023-04-24T04:52:59;4.63;;;2.40;;
53022;SDS011;38913;44.338;11.206;2023-04-24T04:55:25;5.20;;;2.30;;
53022;SDS011;38913;44.338;11.206;2023-04-24T04:57:50;6.10;;;2.22;;
53022;SDS011;38913;44.338;11.206;2023-04-24T05:00:16;5.47;;;1.95;;
53022;SDS011;38913;44.338;11.206;2023-04-24T05:02:42;4.32;;;2.00;;
53022;SDS011;38913;44.338;11.206;2023-04-24T05:05:07;3.17;;;1.97;;
53022;SDS011;38913;44.338;11.206;2023-04-24T05:07:33;4.65;;;1.50;;
53022;SDS011;38913;44.338;11.206;2023-04-24T05:09:58;4.38;;;1.77;;
53022;SDS011;38913;44.338;11.206;2023-04-24T05:12:23;3.03;;;1.83;;
53022;SDS011;38913;44.338;11.206;2023-04-24T05:14:48;5.03;;;1.87;;
53022;SDS011;38913;44.338;11.206;2023-04-24T05:17:14;3.95;;;1.58;;
53022;SDS011;38913;44.338;11.206;2023-04-24T05:19:40;2.95;;;1.60;;
53022;SDS011;38913;44.338;11.206;2023-04-24T05:22:05;1.63;;;1.38;;
53022;SDS011;38913;44.338;11.206;2023-04-24T05:24:32;3.28;;;2.05;;
53022;SDS011;38913;44.338;11.206;2023-04-24T05:26:57;3.22;;;1.50;;
53022;SDS011;38913;44.338;11.206;2023-04-24T05:29:23;2.88;;;1.63;;
53022;SDS011;38913;44.338;11.206;2023-04-24T05:31:49;4.28;;;1.73;;
53022;SDS011;38913;44.338;11.206;2023-04-24T05:34:14;2.85;;;1.70;;
53022;SDS011;38913;44.338;11.206;2023-04-24T05:36:41;2.92;;;1.52;;
53022;SDS011;38913;44.338;11.206;2023-04-24T05:39:07;2.83;;;1.50;;
53022;SDS011;38913;44.338;11.206;2023-04-24T05:41:33;2.35;;;1.40;;
53022;SDS011;38913;44.338;11.206;2023-04-24T05:43:58;3.33;;;1.80;;
53022;SDS011;38913;44.338;11.206;2023-04-24T05:46:24;2.97;;;1.52;;
53022;SDS011;38913;44.338;11.206;2023-04-24T05:48:52;3.35;;;1.48;;
53022;SDS011;38913;44.338;11.206;2023-04-24T05:51:17;5.37;;;1.60;;
53022;SDS011;38913;44.338;11.206;2023-04-24T05:53:43;2.93;;;1.60;;
53022;SDS011;38913;44.338;11.206;2023-04-24T05:56:08;4.50;;;2.23;;
53022;SDS011;38913;44.338;11.206;2023-04-24T05:58:34;2.88;;;1.45;;
53022;SDS011;38913;44.338;11.206;2023-04-24T06:00:59;4.03;;;1.42;;
53022;SDS011;38913;44.338;11.206;2023-04-24T06:03:29;4.30;;;1.52;;
53022;SDS011;38913;44.338;11.206;2023-04-24T06:05:55;3.75;;;1.50;;
53022;SDS011;38913;44.338;11.206;2023-04-24T06:08:22;4.00;;;1.60;;
53022;SDS011;38913;44.338;11.206;2023-04-24T06:10:48;2.33;;;1.40;;
53022;SDS011;38913;44.338;11.206;2023-04-24T06:13:13;4.90;;;1.20;;
53022;SDS011;38913;44.338;11.206;2023-04-24T06:15:38;2.27;;;1.20;;
53022;SDS011;38913;44.338;11.206;2023-04-24T06:18:04;2.35;;;1.40;;
53022;SDS011;38913;44.338;11.206;2023-04-24T06:20:29;3.50;;;1.23;;
53022;SDS011;38913;44.338;11.206;2023-04-24T06:22:54;5.13;;;1.42;;
53022;SDS011;38913;44.338;11.206;2023-04-24T06:25:20;2.90;;;1.15;;
53022;SDS011;38913;44.338;11.206;2023-04-24T06:27:53;2.30;;;1.37;;
53022;SDS011;38913;44.338;11.206;2023-04-24T06:30:22;2.70;;;1.48;;
53022;SDS011;38913;44.338;11.206;2023-04-24T06:32:47;1.98;;;1.20;;
53022;SDS011;38913;44.338;11.206;2023-04-24T06:35:12;4.03;;;1.50;;
53022;SDS011;38913;44.338;11.206;2023-04-24T06:37:41;3.87;;;1.50;;
53022;SDS011;38913;44.338;11.206;2023-04-24T06:40:06;3.38;;;1.35;;
53022;SDS011;38913;44.338;11.206;2023-04-24T06:42:32;3.15;;;1.58;;
53022;SDS011;38913;44.338;11.206;2023-04-24T06:44:57;2.60;;;1.35;;
53022;SDS011;38913;44.338;11.206;2023-04-24T06:47:22;2.95;;;1.48;;
53022;SDS011;38913;44.338;11.206;2023-04-24T06:49:48;3.25;;;1.20;;
53022;SDS011;38913;44.338;11.206;2023-04-24T06:52:16;2.42;;;1.20;;
53022;SDS011;38913;44.338;11.206;2023-04-24T06:54:41;3.03;;;1.30;;
53022;SDS011;38913;44.338;11.206;2023-04-24T06:57:07;2.83;;;1.30;;
53022;SDS011;38913;44.338;11.206;2023-04-24T06:59:33;4.18;;;1.50;;
53022;SDS011;38913;44.338;11.206;2023-04-24T07:01:58;3.40;;;1.55;;
53022;SDS011;38913;44.338;11.206;2023-04-24T07:04:24;3.72;;;1.35;;
53022;SDS011;38913;44.338;11.206;2023-04-24T07:06:50;3.45;;;1.20;;
53022;SDS011;38913;44.338;11.206;2023-04-24T07:09:20;2.83;;;1.30;;
53022;SDS011;38913;44.338;11.206;2023-04-24T07:11:47;3.72;;;1.15;;
53022;SDS011;38913;44.338;11.206;2023-04-24T07:14:12;3.22;;;1.30;;
53022;SDS011;38913;44.338;11.206;2023-04-24T07:16:38;2.45;;;1.27;;
53022;SDS011;38913;44.338;11.206;2023-04-24T07:19:03;2.15;;;1.20;;
53022;SDS011;38913;44.338;11.206;2023-04-24T07:21:29;3.08;;;1.40;;
53022;SDS011;38913;44.338;11.206;2023-04-24T07:23:56;3.17;;;1.15;;
53022;SDS011;38913;44.338;11.206;2023-04-24T07:26:21;2.83;;;1.20;;
53022;SDS011;38913;44.338;11.206;2023-04-24T07:28:47;2.55;;;1.10;;
53022;SDS011;38913;44.338;11.206;2023-04-24T07:31:12;2.40;;;1.50;;
53022;SDS011;38913;44.338;11.206;2023-04-24T07:33:39;3.00;;;1.45;;
53022;SDS011;38913;44.338;11.206;2023-04-24T07:36:04;1.80;;;1.00;;
53022;SDS011;38913;44.338;11.206;2023-04-24T07:38:30;3.72;;;1.00;;
53022;SDS011;38913;44.338;11.206;2023-04-24T07:40:56;2.50;;;1.10;;
53022;SDS011;38913;44.338;11.206;2023-04-24T07:43:21;4.18;;;1.20;;
53022;SDS011;38913;44.338;11.206;2023-04-24T07:45:48;2.88;;;1.33;;
53022;SDS011;38913;44.338;11.206;2023-04-24T07:48:13;3.10;;;1.43;;
53022;SDS011;38913;44.338;11.206;2023-04-24T07:50:41;3.30;;;1.45;;
53022;SDS011;38913;44.338;11.206;2023-04-24T07:53:07;3.38;;;1.23;;
53022;SDS011;38913;44.338;11.206;2023-04-24T07:55:32;3.67;;;1.10;;
53022;SDS011;38913;44.338;11.206;2023-04-24T07:57:57;2.30;;;1.00;;
53022;SDS011;38913;44.338;11.206;2023-04-24T08:00:23;3.33;;;1.65;;
53022;SDS011;38913;44.338;11.206;2023-04-24T08:02:48;2.92;;;1.25;;
53022;SDS011;38913;44.338;11.206;2023-04-24T08:05:13;4.87;;;1.60;;
53022;SDS011;38913;44.338;11.206;2023-04-24T08:07:39;3.50;;;1.70;;
53022;SDS011;38913;44.338;11.206;2023-04-24T08:10:04;2.60;;;1.70;;
53022;SDS011;38913;44.338;11.206;2023-04-24T08:12:30;2.40;;;1.40;;
53022;SDS011;38913;44.338;11.206;2023-04-24T08:14:55;3.67;;;2.13;;
53022;SDS011;38913;44.338;11.206;2023-04-24T08:17:20;4.80;;;1.73;;
53022;SDS011;38913;44.338;11.206;2023-04-24T08:19:46;2.03;;;1.80;;
53022;SDS011;38913;44.338;11.206;2023-04-24T08:22:13;2.70;;;1.67;;
53022;SDS011;38913;44.338;11.206;2023-04-24T08:24:39;2.53;;;1.70;;
53022;SDS011;38913;44.338;11.206;2023-04-24T08:27:04;2.63;;;1.50;;
53022;SDS011;38913;44.338;11.206;2023-04-24T08:29:30;2.77;;;1.67;;
53022;SDS011;38913;44.338;11.206;2023-04-24T08:31:55;2.58;;;1.65;;
53022;SDS011;38913;44.338;11.206;2023-04-24T08:34:21;2.30;;;1.40;;
53022;SDS011;38913;44.338;11.206;2023-04-24T08:36:46;2.17;;;1.60;;
53022;SDS011;38913;44.338;11.206;2023-04-24T08:39:12;3.17;;;1.63;;
53022;SDS011;38913;44.338;11.206;2023-04-24T08:41:41;2.53;;;1.00;;
53022;SDS011;38913;44.338;11.206;2023-04-24T08:44:13;1.80;;;1.25;;
53022;SDS011;38913;44.338;11.206;2023-04-24T08:49:06;1.43;;;0.80;;
53022;SDS011;38913;44.338;11.206;2023-04-24T08:51:42;2.17;;;0.70;;
53022;SDS011;38913;44.338;11.206;2023-04-24T08:54:07;2.53;;;0.77;;
53022;SDS011;38913;44.338;11.206;2023-04-24T08:56:55;2.70;;;0.90;;
53022;SDS011;38913;44.338;11.206;2023-04-24T08:59:19;3.15;;;1.25;;
53022;SDS011;38913;44.338;11.206;2023-04-24T09:01:46;1.58;;;1.00;;
53022;SDS011;38913;44.338;11.206;2023-04-24T09:04:14;1.90;;;0.98;;
53022;SDS011;38913;44.338;11.206;2023-04-24T09:06:43;2.50;;;1.20;;
53022;SDS011;38913;44.338;11.206;2023-04-24T09:09:08;2.15;;;1.40;;
53022;SDS011;38913;44.338;11.206;2023-04-24T09:11:36;2.10;;;1.17;;
53022;SDS011;38913;44.338;11.206;2023-04-24T09:14:01;2.20;;;1.30;;
53022;SDS011;38913;44.338;11.206;2023-04-24T09:17:00;3.15;;;1.80;;
53022;SDS011;38913;44.338;11.206;2023-04-24T09:19:25;2.28;;;1.20;;
53022;SDS011;38913;44.338;11.206;2023-04-24T09:21:50;2.03;;;1.67;;
53022;SDS011;38913;44.338;11.206;2023-04-24T09:24:18;4.82;;;1.83;;
53022;SDS011;38913;44.338;11.206;2023-04-24T09:26:46;4.18;;;1.83;;
53022;SDS011;38913;44.338;11.206;2023-04-24T09:29:17;4.75;;;1.83;;
53022;SDS011;38913;44.338;11.206;2023-04-24T09:31:43;3.65;;;2.05;;
53022;SDS011;38913;44.338;11.206;2023-04-24T09:34:08;5.68;;;2.00;;
53022;SDS011;38913;44.338;11.206;2023-04-24T09:38:59;3.22;;;1.70;;
53022;SDS011;38913;44.338;11.206;2023-04-24T09:41:25;3.58;;;1.80;;
53022;SDS011;38913;44.338;11.206;2023-04-24T09:43:54;3.63;;;2.00;;
53022;SDS011;38913;44.338;11.206;2023-04-24T09:46:20;6.57;;;2.75;;
53022;SDS011;38913;44.338;11.206;2023-04-24T09:48:47;2.90;;;2.60;;
53022;SDS011;38913;44.338;11.206;2023-04-24T09:51:12;5.50;;;2.83;;
53022;SDS011;38913;44.338;11.206;2023-04-24T09:53:38;6.50;;;4.47;;
53022;SDS011;38913;44.338;11.206;2023-04-24T09:56:09;5.40;;;4.50;;
53022;SDS011;38913;44.338;11.206;2023-04-24T09:58:35;6.15;;;5.00;;
53022;SDS011;38913;44.338;11.206;2023-04-24T10:01:01;7.22;;;4.68;;
53022;SDS011;38913;44.338;11.206;2023-04-24T10:03:27;6.53;;;5.13;;
53022;SDS011;38913;44.338;11.206;2023-04-24T10:05:54;7.57;;;5.20;;
53022;SDS011;38913;44.338;11.206;2023-04-24T10:08:23;6.07;;;5.47;;
53022;SDS011;38913;44.338;11.206;2023-04-24T10:10:48;7.38;;;6.00;;
53022;SDS011;38913;44.338;11.206;2023-04-24T10:13:14;9.67;;;5.97;;
53022;SDS011;38913;44.338;11.206;2023-04-24T10:15:40;8.60;;;5.40;;
53022;SDS011;38913;44.338;11.206;2023-04-24T10:18:06;5.97;;;4.70;;
53022;SDS011;38913;44.338;11.206;2023-04-24T10:20:32;5.80;;;4.60;;
53022;SDS011;38913;44.338;11.206;2023-04-24T10:22:58;6.40;;;4.93;;
53022;SDS011;38913;44.338;11.206;2023-04-24T10:25:24;5.78;;;4.50;;
53022;SDS011;38913;44.338;11.206;2023-04-24T10:27:51;5.97;;;4.80;;
53022;SDS011;38913;44.338;11.206;2023-04-24T10:30:18;5.88;;;4.65;;
53022;SDS011;38913;44.338;11.206;2023-04-24T10:32:43;4.22;;;3.83;;
53022;SDS011;38913;44.338;11.206;2023-04-24T10:35:09;7.10;;;4.70;;
53022;SDS011;38913;44.338;11.206;2023-04-24T10:37:37;6.40;;;4.95;;
53022;SDS011;38913;44.338;11.206;2023-04-24T10:40:02;6.45;;;4.53;;
53022;SDS011;38913;44.338;11.206;2023-04-24T10:42:28;5.47;;;3.80;;
53022;SDS011;38913;44.338;11.206;2023-04-24T10:44:53;4.53;;;3.60;;
53022;SDS011;38913;44.338;11.206;2023-04-24T10:47:20;3.60;;;3.30;;
53022;SDS011;38913;44.338;11.206;2023-04-24T10:49:45;5.28;;;3.95;;
53022;SDS011;38913;44.338;11.206;2023-04-24T10:52:11;4.10;;;3.58;;
53022;SDS011;38913;44.338;11.206;2023-04-24T10:59:43;3.58;;;2.90;;
53022;SDS011;38913;44.338;11.206;2023-04-24T11:02:08;4.15;;;2.95;;
53022;SDS011;38913;44.338;11.206;2023-04-24T11:04:34;3.70;;;3.03;;
53022;SDS011;38913;44.338;11.206;2023-04-24T11:07:02;4.72;;;3.90;;
53022;SDS011;38913;44.338;11.206;2023-04-24T11:09:28;4.93;;;3.78;;
53022;SDS011;38913;44.338;11.206;2023-04-24T11:12:17;4.22;;;3.42;;
53022;SDS011;38913;44.338;11.206;2023-04-24T11:17:31;4.22;;;2.72;;
53022;SDS011;38913;44.338;11.206;2023-04-24T11:20:09;3.38;;;2.58;;
53022;SDS011;38913;44.338;11.206;2023-04-24T11:22:36;6.60;;;2.60;;
53022;SDS011;38913;44.338;11.206;2023-04-24T11:25:05;3.88;;;2.47;;
53022;SDS011;38913;44.338;11.206;2023-04-24T11:27:32;4.22;;;2.95;;
53022;SDS011;38913;44.338;11.206;2023-04-24T11:30:03;3.15;;;2.15;;
53022;SDS011;38913;44.338;11.206;2023-04-24T11:37:39;3.40;;;2.15;;
53022;SDS011;38913;44.338;11.206;2023-04-24T11:40:06;5.32;;;2.28;;
53022;SDS011;38913;44.338;11.206;2023-04-24T11:42:39;3.42;;;2.33;;
53022;SDS011;38913;44.338;11.206;2023-04-24T11:47:36;3.65;;;2.10;;
53022;SDS011;38913;44.338;11.206;2023-04-24T11:50:02;4.35;;;2.00;;
53022;SDS011;38913;44.338;11.206;2023-04-24T11:52:28;3.15;;;2.00;;
53022;SDS011;38913;44.338;11.206;2023-04-24T11:54:54;3.22;;;2.15;;
53022;SDS011;38913;44.338;11.206;2023-04-24T11:57:20;4.00;;;2.10;;
53022;SDS011;38913;44.338;11.206;2023-04-24T11:59:46;2.83;;;1.90;;
53022;SDS011;38913;44.338;11.206;2023-04-24T12:02:25;3.20;;;1.90;;
53022;SDS011;38913;44.338;11.206;2023-04-24T12:04:51;5.72;;;1.88;;
53022;SDS011;38913;44.338;11.206;2023-04-24T12:07:17;2.30;;;2.10;;
53022;SDS011;38913;44.338;11.206;2023-04-24T12:09:46;3.53;;;1.95;;
53022;SDS011;38913;44.338;11.206;2023-04-24T12:12:13;3.53;;;2.10;;
53022;SDS011;38913;44.338;11.206;2023-04-24T12:14:57;2.75;;;1.77;;
53022;SDS011;38913;44.338;11.206;2023-04-24T12:17:26;4.00;;;1.88;;
53022;SDS011;38913;44.338;11.206;2023-04-24T12:20:02;5.35;;;2.00;;
53022;SDS011;38913;44.338;11.206;2023-04-24T12:22:44;3.75;;;2.20;;
53022;SDS011;38913;44.338;11.206;2023-04-24T12:25:12;3.10;;;2.00;;
53022;SDS011;38913;44.338;11.206;2023-04-24T12:27:38;2.17;;;1.92;;
53022;SDS011;38913;44.338;11.206;2023-04-24T12:30:04;4.57;;;2.10;;
53022;SDS011;38913;44.338;11.206;2023-04-24T12:32:29;4.65;;;2.10;;
53022;SDS011;38913;44.338;11.206;2023-04-24T12:34:55;2.80;;;1.67;;
53022;SDS011;38913;44.338;11.206;2023-04-24T12:37:20;3.47;;;2.10;;
53022;SDS011;38913;44.338;11.206;2023-04-24T12:40:03;5.97;;;2.45;;
53022;SDS011;38913;44.338;11.206;2023-04-24T12:42:30;3.67;;;1.90;;
53022;SDS011;38913;44.338;11.206;2023-04-24T12:44:56;3.28;;;1.98;;
53022;SDS011;38913;44.338;11.206;2023-04-24T12:47:24;2.83;;;1.70;;
53022;SDS011;38913;44.338;11.206;2023-04-24T12:49:52;3.05;;;1.80;;
53022;SDS011;38913;44.338;11.206;2023-04-24T12:52:18;3.50;;;1.90;;
53022;SDS011;38913;44.338;11.206;2023-04-24T12:54:44;1.90;;;1.60;;
53022;SDS011;38913;44.338;11.206;2023-04-24T12:57:10;2.40;;;1.63;;
53022;SDS011;38913;44.338;11.206;2023-04-24T12:59:35;2.77;;;1.70;;
53022;SDS011;38913;44.338;11.206;2023-04-24T13:02:00;2.73;;;1.57;;
53022;SDS011;38913;44.338;11.206;2023-04-24T13:04:26;3.28;;;1.80;;
53022;SDS011;38913;44.338;11.206;2023-04-24T13:06:51;4.37;;;2.00;;
53022;SDS011;38913;44.338;11.206;2023-04-24T13:09:16;2.90;;;1.83;;
53022;SDS011;38913;44.338;11.206;2023-04-24T13:11:41;3.13;;;1.73;;
53022;SDS011;38913;44.338;11.206;2023-04-24T13:14:07;3.78;;;1.90;;
53022;SDS011;38913;44.338;11.206;2023-04-24T13:16:32;2.60;;;2.00;;
53022;SDS011;38913;44.338;11.206;2023-04-24T13:18:57;3.80;;;1.85;;
53022;SDS011;38913;44.338;11.206;2023-04-24T13:21:22;5.47;;;2.20;;
53022;SDS011;38913;44.338;11.206;2023-04-24T13:23:48;3.27;;;1.93;;
53022;SDS011;38913;44.338;11.206;2023-04-24T13:26:13;2.97;;;1.93;;
53022;SDS011;38913;44.338;11.206;2023-04-24T13:28:38;2.07;;;1.87;;
53022;SDS011;38913;44.338;11.206;2023-04-24T13:31:03;3.80;;;1.70;;
53022;SDS011;38913;44.338;11.206;2023-04-24T13:33:29;3.47;;;1.92;;
53022;SDS011;38913;44.338;11.206;2023-04-24T13:35:57;3.83;;;2.10;;
53022;SDS011;38913;44.338;11.206;2023-04-24T13:38:22;3.92;;;2.35;;
53022;SDS011;38913;44.338;11.206;2023-04-24T13:40:48;3.38;;;2.00;;
53022;SDS011;38913;44.338;11.206;2023-04-24T13:43:14;3.92;;;2.00;;
53022;SDS011;38913;44.338;11.206;2023-04-24T13:45:59;3.35;;;1.95;;
53022;SDS011;38913;44.338;11.206;2023-04-24T13:48:27;4.68;;;2.00;;
53022;SDS011;38913;44.338;11.206;2023-04-24T13:50:53;6.18;;;2.38;;
53022;SDS011;38913;44.338;11.206;2023-04-24T13:53:18;2.40;;;1.70;;
53022;SDS011;38913;44.338;11.206;2023-04-24T13:55:43;2.70;;;2.00;;
53022;SDS011;38913;44.338;11.206;2023-04-24T13:58:08;2.40;;;1.80;;
53022;SDS011;38913;44.338;11.206;2023-04-24T14:00:33;3.60;;;1.90;;
53022;SDS011;38913;44.338;11.206;2023-04-24T14:02:59;4.13;;;2.20;;
53022;SDS011;38913;44.338;11.206;2023-04-24T14:05:24;3.57;;;2.30;;
53022;SDS011;38913;44.338;11.206;2023-04-24T14:07:50;6.93;;;2.03;;
53022;SDS011;38913;44.338;11.206;2023-04-24T14:10:15;5.60;;;1.42;;
53022;SDS011;38913;44.338;11.206;2023-04-24T14:12:41;2.83;;;1.17;;
53022;SDS011;38913;44.338;11.206;2023-04-24T14:15:07;3.35;;;1.08;;
53022;SDS011;38913;44.338;11.206;2023-04-24T14:17:33;3.65;;;1.13;;
53022;SDS011;38913;44.338;11.206;2023-04-24T14:19:59;1.85;;;0.98;;
53022;SDS011;38913;44.338;11.206;2023-04-24T14:22:25;2.55;;;0.90;;
53022;SDS011;38913;44.338;11.206;2023-04-24T14:24:51;2.17;;;1.20;;
53022;SDS011;38913;44.338;11.206;2023-04-24T14:27:16;1.38;;;1.00;;
53022;SDS011;38913;44.338;11.206;2023-04-24T14:29:42;1.43;;;0.70;;
53022;SDS011;38913;44.338;11.206;2023-04-24T14:32:07;1.40;;;0.70;;
53022;SDS011;38913;44.338;11.206;2023-04-24T14:34:34;1.05;;;0.65;;
53022;SDS011;38913;44.338;11.206;2023-04-24T14:36:59;0.80;;;0.60;;
53022;SDS011;38913;44.338;11.206;2023-04-24T14:39:24;1.58;;;0.60;;
53022;SDS011;38913;44.338;11.206;2023-04-24T14:41:50;1.83;;;0.80;;
53022;SDS011;38913;44.338;11.206;2023-04-24T14:44:15;0.73;;;0.60;;
53022;SDS011;38913;44.338;11.206;2023-04-24T14:46:41;1.67;;;0.70;;
53022;SDS011;38913;44.338;11.206;2023-04-24T14:49:06;1.83;;;0.80;;
53022;SDS011;38913;44.338;11.206;2023-04-24T14:51:34;1.35;;;0.73;;